Cortaro, AZ (85652)

6:28 AM MST on September 23, 2014 (GMT -0700)
Sombrero View | Change Station
CLOSE
Current Station
Personal Weather Station
Location: Marana, AZ
Elevation: 2133 ft
Nearby Weather Stations

Elev 2133 ft 32.36 °N, 111.11 °W | Updated 4 minutes ago

Clear
Clear
71.8 °F
Feels Like 74 °F
N
0.0
Wind Variable Wind from ESE
Gusts 0.0 mph

Today
High -- | Low -- °F
--% Chance of Precip.
Yesterday
High -- | Low -- °F
Precip. -- in
6:13 AM 6:19 PM
Waning Crescent, 0% visible
Pressure 30.03 in
Visibility 10.0 miles
Clouds Clear
Heat Index 74 °F
Dew Point 63 °F
Humidity 73%
Rainfall 0.00 in
Snow Depth 2 in , 0 in , 0 in
UV 0 out of 12
Pollen 7.60 out of 12
Air Quality Not available.
Flu Activity Not available.
METAR KRYN 231251Z 12005KT 10SM CLR 23/16 A3003

More Conditions Fewer Conditions

Pressure 30.03 in
Visibility 10.0 miles
Clouds Clear
Heat Index 74 °F
Dew Point 63 °F
Humidity 73%
Rainfall 0.00 in
Snow Depth 2 in , 0 in , 0 in
UV 0 out of 12
Pollen 7.60 out of 12
Air Quality Not available.
Flu Activity Not available.
METAR KRYN 231251Z 12005KT 10SM CLR 23/16 A3003

More Conditions Fewer Conditions

10-Day Weather Forecast

Almanac

Astronomy

Sep. 23, 2014 Rise Set
Actual Time 6:13 AM MST 6:19 PM MST
Civil Twilight 5:48 AM MST 6:44 PM MST
Nautical Twilight 5:20 AM MST 7:12 PM MST
Astronomical Twilight 4:51 AM MST 7:41 PM MST
Moon 5:41 AM MST 6:01 PM MST
Length of Visible Light 12h 55m
Length of Day
12h 06m
Tomorrow will be 1m 59s shorter.
Waning Crescent, 0% of the Moon is Illuminated
Today
Waning Crescent
Sep 24
New
Oct 1
First Quarter
Oct 8
Full
Oct 15
Last Quarter

Today's Extremes

State Highs State Lows

Community

WunderPhotos

Upload Photos

1,755,669 photos uploaded!

WunderBlogs® & News

Nearby

Snow Depth

Station Depth Elevation
Beaver Head 2 in 7990 ft
Happy Jack 0 in 7630 ft
Mormon Mountain 0 in 7500 ft
White Horse Lake 0 in 7180 ft
Promontory 0 in 7930 ft

Earthquake Activity

City Distance Mag. Time & Date
No recent earthquake activity has been reported nearby.
Minimum magnitude displayed is 2.5.

Coastal Water Temperatures

Place Temperature
No Stations Reporting

Nearby Weather Stations